sensor_id;sensor_type;location;lat;lon;timestamp;temperature;humidity
18797;DHT22;9526;52.612;13.300;2023-02-15T00:01:10;3.10;99.90
18797;DHT22;9526;52.612;13.300;2023-02-15T00:03:34;3.00;99.90
18797;DHT22;9526;52.612;13.300;2023-02-15T00:05:58;3.00;99.90
18797;DHT22;9526;52.612;13.300;2023-02-15T00:08:23;2.90;99.90
18797;DHT22;9526;52.612;13.300;2023-02-15T00:10:46;2.90;99.90
18797;DHT22;9526;52.612;13.300;2023-02-15T00:13:12;2.80;99.90
18797;DHT22;9526;52.612;13.300;2023-02-15T00:15:35;2.80;99.90
18797;DHT22;9526;52.612;13.300;2023-02-15T00:17:59;2.70;99.90
18797;DHT22;9526;52.612;13.300;2023-02-15T00:20:23;2.60;99.90
18797;DHT22;9526;52.612;13.300;2023-02-15T00:22:46;2.60;99.90
18797;DHT22;9526;52.612;13.300;2023-02-15T00:25:10;2.50;99.90
18797;DHT22;9526;52.612;13.300;2023-02-15T00:27:34;2.50;99.90
18797;DHT22;9526;52.612;13.300;2023-02-15T00:29:59;2.50;99.90
18797;DHT22;9526;52.612;13.300;2023-02-15T00:32:24;2.40;99.90
18797;DHT22;9526;52.612;13.300;2023-02-15T00:34:47;2.40;99.90
18797;DHT22;9526;52.612;13.300;2023-02-15T00:37:11;2.30;99.90
18797;DHT22;9526;52.612;13.300;2023-02-15T00:39:35;2.30;99.90
18797;DHT22;9526;52.612;13.300;2023-02-15T00:42:00;2.20;99.90
18797;DHT22;9526;52.612;13.300;2023-02-15T00:44:24;2.20;99.90
18797;DHT22;9526;52.612;13.300;2023-02-15T00:46:52;2.10;99.90
18797;DHT22;9526;52.612;13.300;2023-02-15T00:49:16;2.00;99.90
18797;DHT22;9526;52.612;13.300;2023-02-15T00:51:39;2.00;99.90
18797;DHT22;9526;52.612;13.300;2023-02-15T00:54:03;2.00;99.90
18797;DHT22;9526;52.612;13.300;2023-02-15T00:56:27;1.90;99.90
18797;DHT22;9526;52.612;13.300;2023-02-15T00:58:51;1.80;99.90
18797;DHT22;9526;52.612;13.300;2023-02-15T01:01:17;1.80;99.90
18797;DHT22;9526;52.612;13.300;2023-02-15T01:03:43;1.80;99.90
18797;DHT22;9526;52.612;13.300;2023-02-15T01:06:08;1.80;99.90
18797;DHT22;9526;52.612;13.300;2023-02-15T01:08:33;1.70;99.90
18797;DHT22;9526;52.612;13.300;2023-02-15T01:10:57;1.70;99.90
18797;DHT22;9526;52.612;13.300;2023-02-15T01:13:26;1.60;99.90
18797;DHT22;9526;52.612;13.300;2023-02-15T01:15:53;1.60;99.90
18797;DHT22;9526;52.612;13.300;2023-02-15T01:18:18;1.60;99.90
18797;DHT22;9526;52.612;13.300;2023-02-15T01:20:44;1.50;99.90
18797;DHT22;9526;52.612;13.300;2023-02-15T01:23:09;1.50;99.90
18797;DHT22;9526;52.612;13.300;2023-02-15T01:25:34;1.50;99.90
18797;DHT22;9526;52.612;13.300;2023-02-15T01:27:58;1.40;99.90
18797;DHT22;9526;52.612;13.300;2023-02-15T01:30:22;1.40;99.90
18797;DHT22;9526;52.612;13.300;2023-02-15T01:32:46;1.30;99.90
18797;DHT22;9526;52.612;13.300;2023-02-15T01:35:10;1.30;99.90
18797;DHT22;9526;52.612;13.300;2023-02-15T01:37:36;1.30;99.90
18797;DHT22;9526;52.612;13.300;2023-02-15T01:40:00;1.30;99.90
18797;DHT22;9526;52.612;13.300;2023-02-15T01:42:24;1.20;99.90
18797;DHT22;9526;52.612;13.300;2023-02-15T01:44:51;1.10;99.90
18797;DHT22;9526;52.612;13.300;2023-02-15T01:47:21;1.10;99.90
18797;DHT22;9526;52.612;13.300;2023-02-15T01:49:48;1.00;99.90
18797;DHT22;9526;52.612;13.300;2023-02-15T01:52:18;1.00;99.90
18797;DHT22;9526;52.612;13.300;2023-02-15T01:54:47;1.00;99.90
18797;DHT22;9526;52.612;13.300;2023-02-15T01:57:13;1.00;99.90
18797;DHT22;9526;52.612;13.300;2023-02-15T01:59:43;0.90;99.90
18797;DHT22;9526;52.612;13.300;2023-02-15T02:02:12;0.90;99.90
18797;DHT22;9526;52.612;13.300;2023-02-15T02:04:41;0.90;99.90
18797;DHT22;9526;52.612;13.300;2023-02-15T02:07:10;0.90;99.90
18797;DHT22;9526;52.612;13.300;2023-02-15T02:09:36;0.80;99.90
18797;DHT22;9526;52.612;13.300;2023-02-15T02:12:02;0.70;99.90
18797;DHT22;9526;52.612;13.300;2023-02-15T02:14:26;0.60;99.90
18797;DHT22;9526;52.612;13.300;2023-02-15T02:16:55;0.70;99.90
18797;DHT22;9526;52.612;13.300;2023-02-15T02:19:52;0.70;99.90
18797;DHT22;9526;52.612;13.300;2023-02-15T02:29:32;0.60;99.90
18797;DHT22;9526;52.612;13.300;2023-02-15T02:35:25;0.50;99.90
18797;DHT22;9526;52.612;13.300;2023-02-15T02:38:00;0.50;99.90
18797;DHT22;9526;52.612;13.300;2023-02-15T02:40:36;0.50;99.90
18797;DHT22;9526;52.612;13.300;2023-02-15T02:43:11;0.50;99.90
18797;DHT22;9526;52.612;13.300;2023-02-15T02:45:44;0.40;99.90
18797;DHT22;9526;52.612;13.300;2023-02-15T02:48:16;0.40;99.90
18797;DHT22;9526;52.612;13.300;2023-02-15T02:50:43;0.40;99.90
18797;DHT22;9526;52.612;13.300;2023-02-15T02:53:08;0.30;99.90
18797;DHT22;9526;52.612;13.300;2023-02-15T02:55:38;0.30;99.90
18797;DHT22;9526;52.612;13.300;2023-02-15T02:58:06;0.30;99.90
18797;DHT22;9526;52.612;13.300;2023-02-15T03:00:36;0.30;99.90
18797;DHT22;9526;52.612;13.300;2023-02-15T03:03:06;0.30;99.90
18797;DHT22;9526;52.612;13.300;2023-02-15T03:05:37;0.20;99.90
18797;DHT22;9526;52.612;13.300;2023-02-15T03:08:04;0.20;99.90
18797;DHT22;9526;52.612;13.300;2023-02-15T03:10:33;0.20;99.90
18797;DHT22;9526;52.612;13.300;2023-02-15T03:12:59;0.20;99.90
18797;DHT22;9526;52.612;13.300;2023-02-15T03:15:25;0.10;99.90
18797;DHT22;9526;52.612;13.300;2023-02-15T03:18:10;0.10;99.90
18797;DHT22;9526;52.612;13.300;2023-02-15T03:20:36;0.10;99.90
18797;DHT22;9526;52.612;13.300;2023-02-15T03:23:04;0.10;99.90
18797;DHT22;9526;52.612;13.300;2023-02-15T03:25:33;0.10;99.90
18797;DHT22;9526;52.612;13.300;2023-02-15T03:28:01;0.10;99.90
18797;DHT22;9526;52.612;13.300;2023-02-15T03:30:27;0.00;99.90
18797;DHT22;9526;52.612;13.300;2023-02-15T03:32:53;0.00;99.90
18797;DHT22;9526;52.612;13.300;2023-02-15T03:35:17;0.10;99.90
18797;DHT22;9526;52.612;13.300;2023-02-15T03:37:48;0.00;99.90
18797;DHT22;9526;52.612;13.300;2023-02-15T03:40:19;0.00;99.90
18797;DHT22;9526;52.612;13.300;2023-02-15T03:43:07;0.20;99.90
18797;DHT22;9526;52.612;13.300;2023-02-15T03:45:35;0.00;99.90
18797;DHT22;9526;52.612;13.300;2023-02-15T03:48:16;-0.10;99.90
18797;DHT22;9526;52.612;13.300;2023-02-15T03:50:41;-0.10;99.90
18797;DHT22;9526;52.612;13.300;2023-02-15T03:53:24;-0.10;99.90
18797;DHT22;9526;52.612;13.300;2023-02-15T03:55:49;-0.10;99.90
18797;DHT22;9526;52.612;13.300;2023-02-15T03:58:16;-0.10;99.90
18797;DHT22;9526;52.612;13.300;2023-02-15T04:00:58;-0.10;99.90
18797;DHT22;9526;52.612;13.300;2023-02-15T04:03:42;-0.10;99.90
18797;DHT22;9526;52.612;13.300;2023-02-15T04:06:08;-0.20;99.90
18797;DHT22;9526;52.612;13.300;2023-02-15T04:08:33;-0.10;99.90
18797;DHT22;9526;52.612;13.300;2023-02-15T04:11:14;-0.10;99.90
18797;DHT22;9526;52.612;13.300;2023-02-15T04:13:38;-0.20;99.90
18797;DHT22;9526;52.612;13.300;2023-02-15T04:16:02;-0.20;99.90
18797;DHT22;9526;52.612;13.300;2023-02-15T04:18:29;-0.20;99.90
18797;DHT22;9526;52.612;13.300;2023-02-15T04:21:10;-0.20;99.90
18797;DHT22;9526;52.612;13.300;2023-02-15T04:23:52;-0.20;99.90
18797;DHT22;9526;52.612;13.300;2023-02-15T04:26:33;-0.20;99.90
18797;DHT22;9526;52.612;13.300;2023-02-15T04:28:57;-0.20;99.90
18797;DHT22;9526;52.612;13.300;2023-02-15T04:31:21;-0.20;99.90
18797;DHT22;9526;52.612;13.300;2023-02-15T04:33:45;-0.30;99.90
18797;DHT22;9526;52.612;13.300;2023-02-15T04:36:09;-0.30;99.90
18797;DHT22;9526;52.612;13.300;2023-02-15T04:38:33;-0.30;99.90
18797;DHT22;9526;52.612;13.300;2023-02-15T04:40:58;-0.30;99.90
18797;DHT22;9526;52.612;13.300;2023-02-15T04:43:22;-0.30;99.90
18797;DHT22;9526;52.612;13.300;2023-02-15T04:45:49;-0.40;99.90
18797;DHT22;9526;52.612;13.300;2023-02-15T04:48:13;-0.40;99.90
18797;DHT22;9526;52.612;13.300;2023-02-15T04:50:37;-0.40;99.90
18797;DHT22;9526;52.612;13.300;2023-02-15T04:53:01;-0.40;99.90
18797;DHT22;9526;52.612;13.300;2023-02-15T04:55:25;-0.40;99.90
18797;DHT22;9526;52.612;13.300;2023-02-15T04:57:50;-0.40;99.90
18797;DHT22;9526;52.612;13.300;2023-02-15T05:00:14;-0.40;99.90
18797;DHT22;9526;52.612;13.300;2023-02-15T05:02:38;-0.50;99.90
18797;DHT22;9526;52.612;13.300;2023-02-15T05:05:03;-0.50;99.90
18797;DHT22;9526;52.612;13.300;2023-02-15T05:07:27;-0.50;99.90
18797;DHT22;9526;52.612;13.300;2023-02-15T05:09:50;-0.50;99.90
18797;DHT22;9526;52.612;13.300;2023-02-15T05:12:14;-0.50;99.90
18797;DHT22;9526;52.612;13.300;2023-02-15T05:14:39;-0.50;99.90
18797;DHT22;9526;52.612;13.300;2023-02-15T05:17:03;-0.50;99.90
18797;DHT22;9526;52.612;13.300;2023-02-15T05:19:27;-0.50;99.90
18797;DHT22;9526;52.612;13.300;2023-02-15T05:21:51;-0.50;99.90
18797;DHT22;9526;52.612;13.300;2023-02-15T05:24:15;-0.50;99.90
18797;DHT22;9526;52.612;13.300;2023-02-15T05:26:56;-0.50;99.90
18797;DHT22;9526;52.612;13.300;2023-02-15T05:29:38;-0.50;99.90
18797;DHT22;9526;52.612;13.300;2023-02-15T05:32:02;-0.50;99.90
18797;DHT22;9526;52.612;13.300;2023-02-15T05:34:26;-0.60;99.90
18797;DHT22;9526;52.612;13.300;2023-02-15T05:36:50;-0.50;99.90
18797;DHT22;9526;52.612;13.300;2023-02-15T05:39:14;-0.60;99.90
18797;DHT22;9526;52.612;13.300;2023-02-15T05:41:37;-0.60;99.90
18797;DHT22;9526;52.612;13.300;2023-02-15T05:44:01;-0.60;99.90
18797;DHT22;9526;52.612;13.300;2023-02-15T05:46:26;-0.60;99.90
18797;DHT22;9526;52.612;13.300;2023-02-15T05:48:50;-0.60;99.90
18797;DHT22;9526;52.612;13.300;2023-02-15T05:51:14;-0.60;99.90
18797;DHT22;9526;52.612;13.300;2023-02-15T05:53:39;-0.60;99.90
18797;DHT22;9526;52.612;13.300;2023-02-15T05:56:04;-0.60;99.90
18797;DHT22;9526;52.612;13.300;2023-02-15T05:58:31;-0.60;99.90
18797;DHT22;9526;52.612;13.300;2023-02-15T06:00:56;-0.60;99.90
18797;DHT22;9526;52.612;13.300;2023-02-15T06:03:22;-0.60;99.90
18797;DHT22;9526;52.612;13.300;2023-02-15T06:05:47;-0.70;99.90
18797;DHT22;9526;52.612;13.300;2023-02-15T06:08:11;-0.70;99.90
18797;DHT22;9526;52.612;13.300;2023-02-15T06:10:35;-0.70;99.90
18797;DHT22;9526;52.612;13.300;2023-02-15T06:12:59;-0.70;99.90
18797;DHT22;9526;52.612;13.300;2023-02-15T06:15:23;-0.70;99.90
18797;DHT22;9526;52.612;13.300;2023-02-15T06:17:47;-0.70;99.90
18797;DHT22;9526;52.612;13.300;2023-02-15T06:20:12;-0.70;99.90
18797;DHT22;9526;52.612;13.300;2023-02-15T06:22:36;-0.80;99.90
18797;DHT22;9526;52.612;13.300;2023-02-15T06:25:00;-0.70;99.90
18797;DHT22;9526;52.612;13.300;2023-02-15T06:27:24;-0.80;99.90
18797;DHT22;9526;52.612;13.300;2023-02-15T06:29:48;-0.80;99.90
18797;DHT22;9526;52.612;13.300;2023-02-15T06:32:11;-0.80;99.90
18797;DHT22;9526;52.612;13.300;2023-02-15T06:34:35;-0.80;99.90
18797;DHT22;9526;52.612;13.300;2023-02-15T06:37:00;-0.80;99.90
18797;DHT22;9526;52.612;13.300;2023-02-15T06:39:24;-0.80;99.90
18797;DHT22;9526;52.612;13.300;2023-02-15T06:41:48;-0.80;99.90
18797;DHT22;9526;52.612;13.300;2023-02-15T06:44:12;-0.70;99.90
18797;DHT22;9526;52.612;13.300;2023-02-15T06:46:36;-0.70;99.90
18797;DHT22;9526;52.612;13.300;2023-02-15T06:48:59;-0.70;99.90
18797;DHT22;9526;52.612;13.300;2023-02-15T06:51:23;-0.70;99.90
18797;DHT22;9526;52.612;13.300;2023-02-15T06:53:48;-0.60;99.90
18797;DHT22;9526;52.612;13.300;2023-02-15T06:56:12;-0.60;99.90
18797;DHT22;9526;52.612;13.300;2023-02-15T06:58:36;-0.50;99.90
18797;DHT22;9526;52.612;13.300;2023-02-15T07:01:00;-0.50;99.90
18797;DHT22;9526;52.612;13.300;2023-02-15T07:03:25;-0.40;99.90
18797;DHT22;9526;52.612;13.300;2023-02-15T07:05:48;-0.30;99.90
18797;DHT22;9526;52.612;13.300;2023-02-15T07:08:12;-0.20;99.90
18797;DHT22;9526;52.612;13.300;2023-02-15T07:10:37;-0.20;99.90
18797;DHT22;9526;52.612;13.300;2023-02-15T07:13:01;0.00;99.90
18797;DHT22;9526;52.612;13.300;2023-02-15T07:15:24;0.10;99.90
18797;DHT22;9526;52.612;13.300;2023-02-15T07:17:48;0.20;99.90
18797;DHT22;9526;52.612;13.300;2023-02-15T07:20:14;0.30;99.90
18797;DHT22;9526;52.612;13.300;2023-02-15T07:22:39;0.30;99.90
18797;DHT22;9526;52.612;13.300;2023-02-15T07:25:03;0.50;99.90
18797;DHT22;9526;52.612;13.300;2023-02-15T07:27:28;0.50;99.90
18797;DHT22;9526;52.612;13.300;2023-02-15T07:29:52;0.60;99.90
18797;DHT22;9526;52.612;13.300;2023-02-15T07:32:16;0.70;99.90
18797;DHT22;9526;52.612;13.300;2023-02-15T07:34:40;0.80;99.90
18797;DHT22;9526;52.612;13.300;2023-02-15T07:37:04;0.80;99.90
18797;DHT22;9526;52.612;13.300;2023-02-15T07:39:28;0.90;99.90
18797;DHT22;9526;52.612;13.300;2023-02-15T07:41:51;0.90;99.90
18797;DHT22;9526;52.612;13.300;2023-02-15T07:44:17;1.00;99.90
18797;DHT22;9526;52.612;13.300;2023-02-15T07:46:40;1.10;99.90
18797;DHT22;9526;52.612;13.300;2023-02-15T07:49:04;1.20;99.90
18797;DHT22;9526;52.612;13.300;2023-02-15T07:51:28;1.20;99.90
18797;DHT22;9526;52.612;13.300;2023-02-15T07:53:51;1.20;99.90
18797;DHT22;9526;52.612;13.300;2023-02-15T07:56:15;1.30;99.90
18797;DHT22;9526;52.612;13.300;2023-02-15T07:58:39;1.30;99.90
18797;DHT22;9526;52.612;13.300;2023-02-15T08:01:18;1.30;99.90
18797;DHT22;9526;52.612;13.300;2023-02-15T08:03:42;1.40;99.90
18797;DHT22;9526;52.612;13.300;2023-02-15T08:06:07;1.40;99.90
18797;DHT22;9526;52.612;13.300;2023-02-15T08:08:33;1.50;99.90
18797;DHT22;9526;52.612;13.300;2023-02-15T08:10:58;1.50;99.90
18797;DHT22;9526;52.612;13.300;2023-02-15T08:13:42;1.60;99.90
18797;DHT22;9526;52.612;13.300;2023-02-15T08:16:17;1.60;99.90
18797;DHT22;9526;52.612;13.300;2023-02-15T08:18:40;1.70;99.90
18797;DHT22;9526;52.612;13.300;2023-02-15T08:21:04;1.60;99.90
18797;DHT22;9526;52.612;13.300;2023-02-15T08:23:28;1.70;99.90
18797;DHT22;9526;52.612;13.300;2023-02-15T08:25:52;1.70;99.90
18797;DHT22;9526;52.612;13.300;2023-02-15T08:28:15;1.80;99.90
18797;DHT22;9526;52.612;13.300;2023-02-15T08:30:39;1.90;99.90
18797;DHT22;9526;52.612;13.300;2023-02-15T08:33:04;2.00;99.90
18797;DHT22;9526;52.612;13.300;2023-02-15T08:35:28;2.10;99.90
18797;DHT22;9526;52.612;13.300;2023-02-15T08:37:51;2.10;99.90
18797;DHT22;9526;52.612;13.300;2023-02-15T08:40:15;2.10;99.90
18797;DHT22;9526;52.612;13.300;2023-02-15T08:42:39;2.00;99.90
18797;DHT22;9526;52.612;13.300;2023-02-15T08:45:03;2.00;99.90
18797;DHT22;9526;52.612;13.300;2023-02-15T08:47:27;2.00;99.90
18797;DHT22;9526;52.612;13.300;2023-02-15T08:49:52;2.10;99.90
18797;DHT22;9526;52.612;13.300;2023-02-15T08:52:17;2.20;99.90
18797;DHT22;9526;52.612;13.300;2023-02-15T08:54:42;2.30;99.90
18797;DHT22;9526;52.612;13.300;2023-02-15T08:57:05;2.40;99.90
18797;DHT22;9526;52.612;13.300;2023-02-15T08:59:30;2.40;99.90
18797;DHT22;9526;52.612;13.300;2023-02-15T09:01:54;2.40;99.90
18797;DHT22;9526;52.612;13.300;2023-02-15T09:04:18;2.40;99.90
18797;DHT22;9526;52.612;13.300;2023-02-15T09:06:44;2.50;99.90
18797;DHT22;9526;52.612;13.300;2023-02-15T09:09:10;2.50;99.90
18797;DHT22;9526;52.612;13.300;2023-02-15T09:11:36;2.60;99.90
18797;DHT22;9526;52.612;13.300;2023-02-15T09:14:02;2.60;99.90
18797;DHT22;9526;52.612;13.300;2023-02-15T09:16:29;2.80;99.90
18797;DHT22;9526;52.612;13.300;2023-02-15T09:18:55;2.80;99.90
18797;DHT22;9526;52.612;13.300;2023-02-15T09:21:22;2.90;99.90
18797;DHT22;9526;52.612;13.300;2023-02-15T09:23:49;3.00;99.90
18797;DHT22;9526;52.612;13.300;2023-02-15T09:26:15;2.90;99.90
18797;DHT22;9526;52.612;13.300;2023-02-15T09:28:40;2.80;99.90
18797;DHT22;9526;52.612;13.300;2023-02-15T09:31:09;2.90;99.90
18797;DHT22;9526;52.612;13.300;2023-02-15T09:33:34;2.90;99.90
18797;DHT22;9526;52.612;13.300;2023-02-15T09:35:58;3.10;99.90
18797;DHT22;9526;52.612;13.300;2023-02-15T09:38:21;3.20;99.90
18797;DHT22;9526;52.612;13.300;2023-02-15T09:40:53;3.10;99.90
18797;DHT22;9526;52.612;13.300;2023-02-15T09:43:32;3.20;99.90
18797;DHT22;9526;52.612;13.300;2023-02-15T09:46:13;3.20;99.90
18797;DHT22;9526;52.612;13.300;2023-02-15T09:48:54;3.30;99.90
18797;DHT22;9526;52.612;13.300;2023-02-15T09:51:36;3.20;99.90
18797;DHT22;9526;52.612;13.300;2023-02-15T09:54:16;3.40;99.90
18797;DHT22;9526;52.612;13.300;2023-02-15T09:56:53;3.50;99.90
18797;DHT22;9526;52.612;13.300;2023-02-15T09:59:26;3.70;99.90
18797;DHT22;9526;52.612;13.300;2023-02-15T10:02:06;3.80;99.90
18797;DHT22;9526;52.612;13.300;2023-02-15T10:04:49;3.90;99.90
18797;DHT22;9526;52.612;13.300;2023-02-15T10:07:29;3.90;99.90
18797;DHT22;9526;52.612;13.300;2023-02-15T10:10:09;4.20;99.90
18797;DHT22;9526;52.612;13.300;2023-02-15T10:12:52;4.20;99.90
18797;DHT22;9526;52.612;13.300;2023-02-15T10:15:29;4.50;99.90
18797;DHT22;9526;52.612;13.300;2023-02-15T10:18:19;4.50;99.90
18797;DHT22;9526;52.612;13.300;2023-02-15T10:20:57;4.70;99.90
18797;DHT22;9526;52.612;13.300;2023-02-15T10:23:41;4.70;99.90
18797;DHT22;9526;52.612;13.300;2023-02-15T10:26:27;5.20;99.90
18797;DHT22;9526;52.612;13.300;2023-02-15T10:29:00;5.70;99.90
18797;DHT22;9526;52.612;13.300;2023-02-15T10:31:32;6.00;99.90
18797;DHT22;9526;52.612;13.300;2023-02-15T10:34:16;6.50;99.90
18797;DHT22;9526;52.612;13.300;2023-02-15T10:36:58;7.20;99.90
18797;DHT22;9526;52.612;13.300;2023-02-15T10:39:41;7.80;99.90
18797;DHT22;9526;52.612;13.300;2023-02-15T10:42:18;8.30;99.90
18797;DHT22;9526;52.612;13.300;2023-02-15T10:44:56;8.80;99.90
18797;DHT22;9526;52.612;13.300;2023-02-15T10:47:52;9.10;99.90
18797;DHT22;9526;52.612;13.300;2023-02-15T10:50:33;9.50;99.90
18797;DHT22;9526;52.612;13.300;2023-02-15T10:53:26;9.60;99.90
18797;DHT22;9526;52.612;13.300;2023-02-15T10:56:08;9.70;99.90
18797;DHT22;9526;52.612;13.300;2023-02-15T10:58:46;9.50;99.90
18797;DHT22;9526;52.612;13.300;2023-02-15T11:01:27;9.60;99.90
18797;DHT22;9526;52.612;13.300;2023-02-15T11:04:35;9.70;99.90
18797;DHT22;9526;52.612;13.300;2023-02-15T11:07:08;9.90;99.90
18797;DHT22;9526;52.612;13.300;2023-02-15T11:09:43;10.10;99.90
18797;DHT22;9526;52.612;13.300;2023-02-15T11:12:12;10.10;99.90
18797;DHT22;9526;52.612;13.300;2023-02-15T11:14:40;9.90;99.90
18797;DHT22;9526;52.612;13.300;2023-02-15T11:17:11;10.00;99.90
18797;DHT22;9526;52.612;13.300;2023-02-15T11:19:39;10.40;99.90
18797;DHT22;9526;52.612;13.300;2023-02-15T11:22:06;10.20;99.90
18797;DHT22;9526;52.612;13.300;2023-02-15T11:24:42;10.20;99.90
18797;DHT22;9526;52.612;13.300;2023-02-15T11:27:18;10.10;99.90
18797;DHT22;9526;52.612;13.300;2023-02-15T11:29:54;10.20;99.90
18797;DHT22;9526;52.612;13.300;2023-02-15T11:32:28;10.30;99.90
18797;DHT22;9526;52.612;13.300;2023-02-15T11:34:56;10.30;99.90
18797;DHT22;9526;52.612;13.300;2023-02-15T11:37:26;10.40;99.90
18797;DHT22;9526;52.612;13.300;2023-02-15T11:39:53;10.50;99.90
18797;DHT22;9526;52.612;13.300;2023-02-15T11:42:19;10.60;99.90
18797;DHT22;9526;52.612;13.300;2023-02-15T11:44:52;10.50;99.90
18797;DHT22;9526;52.612;13.300;2023-02-15T11:47:19;10.60;99.90
18797;DHT22;9526;52.612;13.300;2023-02-15T11:49:45;10.60;99.90
18797;DHT22;9526;52.612;13.300;2023-02-15T11:52:13;10.50;99.90
18797;DHT22;9526;52.612;13.300;2023-02-15T11:54:41;10.40;99.90
18797;DHT22;9526;52.612;13.300;2023-02-15T11:57:13;10.40;99.90
18797;DHT22;9526;52.612;13.300;2023-02-15T11:59:43;10.60;99.90
18797;DHT22;9526;52.612;13.300;2023-02-15T12:02:16;10.60;99.90
18797;DHT22;9526;52.612;13.300;2023-02-15T12:04:46;10.70;99.90
18797;DHT22;9526;52.612;13.300;2023-02-15T12:07:15;10.70;99.90
18797;DHT22;9526;52.612;13.300;2023-02-15T12:09:49;10.60;99.90
18797;DHT22;9526;52.612;13.300;2023-02-15T12:12:21;10.40;99.90
18797;DHT22;9526;52.612;13.300;2023-02-15T12:14:47;10.20;99.90
18797;DHT22;9526;52.612;13.300;2023-02-15T12:17:13;10.10;99.90
18797;DHT22;9526;52.612;13.300;2023-02-15T12:19:39;9.80;99.90
18797;DHT22;9526;52.612;13.300;2023-02-15T12:22:05;9.80;99.90
18797;DHT22;9526;52.612;13.300;2023-02-15T12:24:34;9.70;99.90
18797;DHT22;9526;52.612;13.300;2023-02-15T12:27:02;9.60;99.90
18797;DHT22;9526;52.612;13.300;2023-02-15T12:29:30;9.50;99.90
18797;DHT22;9526;52.612;13.300;2023-02-15T12:31:57;9.50;99.90
18797;DHT22;9526;52.612;13.300;2023-02-15T12:34:22;9.40;99.90
18797;DHT22;9526;52.612;13.300;2023-02-15T12:36:51;9.30;99.90
18797;DHT22;9526;52.612;13.300;2023-02-15T12:39:22;9.30;99.90
18797;DHT22;9526;52.612;13.300;2023-02-15T12:41:59;9.20;99.90
18797;DHT22;9526;52.612;13.300;2023-02-15T12:44:27;9.20;99.90
18797;DHT22;9526;52.612;13.300;2023-02-15T12:47:00;9.10;99.90
18797;DHT22;9526;52.612;13.300;2023-02-15T12:49:26;9.10;99.90
18797;DHT22;9526;52.612;13.300;2023-02-15T12:51:52;9.20;99.90
18797;DHT22;9526;52.612;13.300;2023-02-15T12:54:25;9.10;99.90
18797;DHT22;9526;52.612;13.300;2023-02-15T12:56:56;9.10;99.90
18797;DHT22;9526;52.612;13.300;2023-02-15T12:59:20;9.10;99.90
18797;DHT22;9526;52.612;13.300;2023-02-15T13:01:44;9.20;99.90
18797;DHT22;9526;52.612;13.300;2023-02-15T13:04:18;9.10;99.90
18797;DHT22;9526;52.612;13.300;2023-02-15T13:06:48;9.20;99.90
18797;DHT22;9526;52.612;13.300;2023-02-15T13:09:16;9.30;99.90
18797;DHT22;9526;52.612;13.300;2023-02-15T13:11:45;9.40;99.90
18797;DHT22;9526;52.612;13.300;2023-02-15T13:14:17;9.50;99.90
18797;DHT22;9526;52.612;13.300;2023-02-15T13:16:45;9.50;99.90
18797;DHT22;9526;52.612;13.300;2023-02-15T13:19:12;9.60;99.90
18797;DHT22;9526;52.612;13.300;2023-02-15T13:21:40;9.60;99.90
18797;DHT22;9526;52.612;13.300;2023-02-15T13:24:17;9.60;99.90
18797;DHT22;9526;52.612;13.300;2023-02-15T13:26:45;9.70;99.90
18797;DHT22;9526;52.612;13.300;2023-02-15T13:29:17;9.60;99.90
18797;DHT22;9526;52.612;13.300;2023-02-15T13:31:43;9.60;99.90
18797;DHT22;9526;52.612;13.300;2023-02-15T13:34:11;9.60;99.90
18797;DHT22;9526;52.612;13.300;2023-02-15T13:36:44;9.70;99.90
18797;DHT22;9526;52.612;13.300;2023-02-15T13:39:23;9.70;99.90
18797;DHT22;9526;52.612;13.300;2023-02-15T13:41:58;9.80;99.90
18797;DHT22;9526;52.612;13.300;2023-02-15T13:44:36;9.80;99.90
18797;DHT22;9526;52.612;13.300;2023-02-15T13:47:19;9.80;99.90
18797;DHT22;9526;52.612;13.300;2023-02-15T13:49:58;9.90;99.90
18797;DHT22;9526;52.612;13.300;2023-02-15T13:52:35;9.80;99.90
18797;DHT22;9526;52.612;13.300;2023-02-15T13:55:25;9.80;99.90
18797;DHT22;9526;52.612;13.300;2023-02-15T13:58:19;9.80;99.90
18797;DHT22;9526;52.612;13.300;2023-02-15T14:00:59;9.80;99.90
18797;DHT22;9526;52.612;13.300;2023-02-15T14:06:58;9.80;99.90
18797;DHT22;9526;52.612;13.300;2023-02-15T14:09:40;9.80;99.90
18797;DHT22;9526;52.612;13.300;2023-02-15T14:15:18;9.80;99.90
18797;DHT22;9526;52.612;13.300;2023-02-15T14:17:55;9.80;99.90
18797;DHT22;9526;52.612;13.300;2023-02-15T14:20:35;9.80;99.90
18797;DHT22;9526;52.612;13.300;2023-02-15T14:23:10;9.80;99.90
18797;DHT22;9526;52.612;13.300;2023-02-15T14:25:40;9.80;99.90
18797;DHT22;9526;52.612;13.300;2023-02-15T14:28:11;9.80;99.90
18797;DHT22;9526;52.612;13.300;2023-02-15T14:30:42;9.80;99.90
18797;DHT22;9526;52.612;13.300;2023-02-15T14:33:31;9.80;99.90
18797;DHT22;9526;52.612;13.300;2023-02-15T14:35:58;9.80;99.90
18797;DHT22;9526;52.612;13.300;2023-02-15T14:38:33;9.80;99.90
18797;DHT22;9526;52.612;13.300;2023-02-15T14:41:04;9.80;99.90
18797;DHT22;9526;52.612;13.300;2023-02-15T14:43:37;9.80;99.90
18797;DHT22;9526;52.612;13.300;2023-02-15T14:46:17;9.80;99.90
18797;DHT22;9526;52.612;13.300;2023-02-15T14:48:47;9.80;99.90
18797;DHT22;9526;52.612;13.300;2023-02-15T14:54:55;9.80;99.90
18797;DHT22;9526;52.612;13.300;2023-02-15T14:57:28;9.70;99.90
18797;DHT22;9526;52.612;13.300;2023-02-15T14:59:58;9.70;99.90
18797;DHT22;9526;52.612;13.300;2023-02-15T15:02:26;9.60;99.90
18797;DHT22;9526;52.612;13.300;2023-02-15T15:04:59;9.70;99.90
18797;DHT22;9526;52.612;13.300;2023-02-15T15:07:27;9.70;99.90
18797;DHT22;9526;52.612;13.300;2023-02-15T15:09:59;9.70;99.90
18797;DHT22;9526;52.612;13.300;2023-02-15T15:12:39;9.60;99.90
18797;DHT22;9526;52.612;13.300;2023-02-15T15:15:04;9.50;99.90
18797;DHT22;9526;52.612;13.300;2023-02-15T15:18:00;9.50;99.90
18797;DHT22;9526;52.612;13.300;2023-02-15T15:20:44;9.50;99.90
18797;DHT22;9526;52.612;13.300;2023-02-15T15:23:43;9.50;99.90
18797;DHT22;9526;52.612;13.300;2023-02-15T15:26:37;9.50;99.90
18797;DHT22;9526;52.612;13.300;2023-02-15T15:29:11;9.40;99.90
18797;DHT22;9526;52.612;13.300;2023-02-15T15:31:42;9.40;99.90
18797;DHT22;9526;52.612;13.300;2023-02-15T15:38:01;9.30;99.90
18797;DHT22;9526;52.612;13.300;2023-02-15T15:41:16;9.30;99.90
18797;DHT22;9526;52.612;13.300;2023-02-15T15:44:05;9.20;99.90
18797;DHT22;9526;52.612;13.300;2023-02-15T15:46:52;9.20;99.90
18797;DHT22;9526;52.612;13.300;2023-02-15T15:49:30;9.10;99.90
18797;DHT22;9526;52.612;13.300;2023-02-15T15:51:54;9.00;99.90
18797;DHT22;9526;52.612;13.300;2023-02-15T15:54:20;8.90;99.90
18797;DHT22;9526;52.612;13.300;2023-02-15T15:56:47;8.80;99.90
18797;DHT22;9526;52.612;13.300;2023-02-15T15:59:17;8.70;99.90
18797;DHT22;9526;52.612;13.300;2023-02-15T16:01:44;8.70;99.90
18797;DHT22;9526;52.612;13.300;2023-02-15T16:04:12;8.60;99.90
18797;DHT22;9526;52.612;13.300;2023-02-15T16:06:39;8.50;99.90
18797;DHT22;9526;52.612;13.300;2023-02-15T16:09:16;8.30;99.90
18797;DHT22;9526;52.612;13.300;2023-02-15T16:11:41;8.20;99.90
18797;DHT22;9526;52.612;13.300;2023-02-15T16:14:14;8.10;99.90
18797;DHT22;9526;52.612;13.300;2023-02-15T16:16:40;8.00;99.90
18797;DHT22;9526;52.612;13.300;2023-02-15T16:19:04;7.90;99.90
18797;DHT22;9526;52.612;13.300;2023-02-15T16:21:31;7.80;99.90